Aérodrome :
LOGIN :

S'inscrire | Disclaimer

   EN    FR    IT 

 










Légende :    VFR   VFR Marginal   IFR   IFR Intensif   IFR Très Intensif
Visi : 
Plafond : 
>= 8 km
>= 3000ft
5 à 8 km
1000 à 3000 ft
1500m à 5 km
500 à 1000 ft
800 à 1500m
200 à 500 ft
< 800m
< 200 ft
Symboles :   Orages  Brouillard  Fortes neiges  Fortes précipitations  Vent > 20 kt
SIGMETs :   Divers  Orages  Givrage  Turbulence  Onde Orograph.  Cendres Volcan.






- Altitude de l'aérodrome : 336 ft
- Code IATA : GCI


EGJB - Guernsey

DERNIER METAR :
  • 071350Z 24012KT 9999 SCT015 BKN028 11/09 Q1016

METARs EXPIRÉS :
  • 071320Z 24013KT 9999 SCT015 BKN028 11/08 Q1016
  • 071250Z 24010KT 9999 FEW014 BKN030 11/07 Q1017
  • 071220Z 24010KT 9999 FEW014 BKN030 11/09 Q1017
  • 071150Z 24011KT 9999 VCSH FEW014 BKN030 11/08 Q1017
  • 071120Z 25011KT 9999 VCSH FEW010 BKN030 11/08 Q1017

TAF TAF EGJB
Valide du 07 à 12h jusqu'au 07 à 21h UTC


071101Z 0712/0721 27008KT 9999 FEW012 SCT028
BECMG 0716/0718 21012KT
PROB30
TEMPO 0718/0721 22016G26KT
ATIS : +44 1481 238 957



MET'MAP, la Météo Aéronautique d'un coup d'oeil ! - Copyright ORBIFLY Décembre 2007 - Disclaimer

ORBIFLY MET'MAP TEAM :

Programmation & Développement : Alexandra Zaïnal
Sur une idée originale de : Baudouin d'Aumeries
Assistance à la programmation : Marc-Olivier Méhu
Soutien technique & logistique : Manuel Goepfert

Contact : metmap@orbifly.com




SOURCES & CREDITS :

   NOAA